Time;durP1;ratioP1;P1;durP2;ratioP2;P2;SDS_P1;SDS_P2;PMS_P1;PMS_P2;Temp;Humidity;BMP_temperature;BMP_pressure;BME280_temperature;BME280_humidity;BME280_pressure;Samples;Min_cycle;Max_cycle;Signal;HPM_P1;HPM_P2
2021/01/10 00:01:22;;;;;;;94.15;36.80;;;2.30;99.90;;;3.07;97.04;101483.88;5028410;28;20439;-82
2021/01/10 00:03:48;;;;;;;106.80;38.85;;;2.30;99.90;;;3.05;97.14;101484.13;5028545;28;20030;-81
2021/01/10 00:06:13;;;;;;;98.22;37.30;;;2.30;99.90;;;3.07;97.20;101484.69;5029017;28;20301;-79
2021/01/10 00:08:40;;;;;;;89.75;37.83;;;2.30;99.90;;;3.09;97.31;101493.50;5028697;28;20094;-78
2021/01/10 00:11:06;;;;;;;90.22;37.40;;;2.40;99.90;;;3.10;97.11;101481.34;5012016;28;20134;-81
2021/01/10 00:13:32;;;;;;;88.90;38.38;;;2.40;99.90;;;3.10;96.91;101486.88;5013131;28;20054;-80
2021/01/10 00:15:58;;;;;;;91.75;37.47;;;2.40;99.90;;;3.05;97.25;101475.06;5027672;28;20026;-79
2021/01/10 00:18:23;;;;;;;91.32;36.17;;;2.40;99.90;;;3.17;96.83;101489.31;5028793;28;20065;-80
2021/01/10 00:20:49;;;;;;;91.63;36.60;;;2.40;99.90;;;3.14;96.67;101476.91;5013646;28;20113;-80
2021/01/10 00:23:15;;;;;;;87.93;35.55;;;2.40;99.90;;;3.11;97.31;101473.91;5012474;28;20080;-81
2021/01/10 00:25:41;;;;;;;94.45;37.63;;;2.40;99.90;;;3.13;97.09;101486.31;5018088;28;20057;-84
2021/01/10 00:28:07;;;;;;;85.78;34.88;;;2.40;99.90;;;3.12;96.69;101481.88;5034688;28;20393;-80
2021/01/10 00:30:35;;;;;;;78.78;36.28;;;2.40;99.90;;;3.08;96.93;101482.78;5018548;28;20017;-80
2021/01/10 00:33:01;;;;;;;79.50;33.97;;;2.40;99.90;;;3.04;96.99;101479.75;5032679;28;20049;-81
2021/01/10 00:35:27;;;;;;;83.57;34.53;;;2.30;99.90;;;3.04;96.85;101477.00;5031467;28;20389;-80
2021/01/10 00:37:56;;;;;;;88.82;34.38;;;2.30;99.90;;;3.06;96.94;101482.22;5032196;28;20105;-80
2021/01/10 00:40:26;;;;;;;78.72;31.02;;;2.30;99.90;;;3.07;96.63;101483.88;5031713;28;20061;-80
2021/01/10 00:42:53;;;;;;;60.22;27.13;;;2.30;99.90;;;3.14;95.61;101487.13;5031816;28;20029;-80
2021/01/10 00:45:19;;;;;;;66.97;28.92;;;2.30;99.90;;;3.10;96.00;101492.41;5016621;28;20037;-80
2021/01/10 00:47:46;;;;;;;67.28;28.08;;;2.30;99.90;;;3.08;96.18;101493.81;5015453;28;20052;-80
2021/01/10 00:50:13;;;;;;;61.10;28.42;;;2.30;99.90;;;3.01;96.69;101483.09;5031212;28;20048;-81
2021/01/10 00:52:41;;;;;;;70.80;29.67;;;2.40;99.90;;;3.03;96.41;101485.56;5015929;28;20030;-80
2021/01/10 00:55:08;;;;;;;59.53;27.92;;;2.30;99.90;;;3.01;96.41;101482.25;5035374;28;20030;-83
2021/01/10 00:57:35;;;;;;;68.15;29.33;;;2.30;99.90;;;2.96;96.71;101479.53;5036317;28;20466;-81
2021/01/10 01:00:00;;;;;;;72.72;30.30;;;2.30;99.90;;;3.00;96.81;101486.94;5045985;28;20030;-81
2021/01/10 01:02:26;;;;;;;73.13;31.42;;;2.30;99.90;;;3.03;96.77;101497.41;5045296;28;20121;-82
2021/01/10 01:04:52;;;;;;;73.72;31.15;;;2.30;99.90;;;3.07;96.52;101492.16;5020585;28;20394;-80
2021/01/10 01:07:18;;;;;;;76.57;33.97;;;2.30;99.90;;;3.06;96.21;101490.50;5034715;28;20154;-82
2021/01/10 01:09:44;;;;;;;71.68;30.70;;;2.30;99.90;;;3.06;96.58;101502.34;5018071;28;20496;-80
2021/01/10 01:12:10;;;;;;;72.45;28.98;;;2.30;99.90;;;3.04;96.48;101487.22;5034047;28;20037;-82
2021/01/10 01:14:35;;;;;;;66.45;30.08;;;2.30;99.90;;;3.04;96.62;101493.56;5017558;28;20037;-81
2021/01/10 01:17:01;;;;;;;73.38;30.67;;;2.40;99.90;;;3.08;96.56;101502.88;5035004;28;20084;-80
2021/01/10 01:19:27;;;;;;;69.47;30.40;;;2.30;99.90;;;3.12;96.35;101500.38;5035327;28;20484;-81
2021/01/10 01:21:53;;;;;;;69.85;31.75;;;2.30;99.90;;;2.95;96.58;101499.97;5035758;28;20030;-81
2021/01/10 01:24:21;;;;;;;75.40;31.13;;;2.30;99.90;;;2.91;97.07;101507.16;5031446;28;20030;-79
2021/01/10 01:26:49;;;;;;;71.68;30.80;;;2.30;99.90;;;2.93;96.93;101500.25;5014803;28;20088;-83
2021/01/10 01:29:15;;;;;;;73.53;31.73;;;2.30;99.90;;;2.93;96.92;101502.19;5031268;28;20481;-81
2021/01/10 01:31:41;;;;;;;74.90;32.42;;;2.20;99.90;;;2.97;97.17;101506.00;5031265;28;20401;-81
2021/01/10 01:34:07;;;;;;;75.22;31.95;;;2.20;99.90;;;2.89;97.44;101510.19;5015350;28;20061;-82
2021/01/10 01:36:33;;;;;;;80.65;31.52;;;2.20;99.90;;;2.96;96.81;101505.19;5031177;28;20375;-81
2021/01/10 01:39:03;;;;;;;70.63;32.08;;;2.20;99.90;;;3.04;96.85;101510.13;5031098;28;20044;-82
2021/01/10 01:41:36;;;;;;;67.50;28.95;;;2.30;99.90;;;3.00;96.47;101514.56;5031003;28;20038;-81
2021/01/10 01:44:02;;;;;;;65.30;29.85;;;2.30;99.90;;;3.05;95.94;101510.94;5031586;28;20393;-82
2021/01/10 01:46:34;;;;;;;65.80;29.10;;;2.30;99.90;;;3.06;95.32;101515.31;5014888;28;20061;-81
2021/01/10 01:49:10;;;;;;;57.83;26.35;;;2.30;99.90;;;3.03;95.32;101511.22;5031041;28;20157;-81
2021/01/10 01:51:40;;;;;;;59.83;28.67;;;2.30;99.90;;;2.99;95.55;101510.13;5015517;28;20034;-80
2021/01/10 01:54:07;;;;;;;62.03;27.17;;;2.30;99.90;;;3.00;95.89;101519.25;5014835;28;20026;-82
2021/01/10 01:56:35;;;;;;;69.60;28.42;;;2.30;99.90;;;3.01;96.07;101518.97;5014560;28;20030;-82
2021/01/10 01:59:08;;;;;;;61.67;28.17;;;2.30;99.90;;;3.00;96.12;101519.25;5014164;28;20033;-79
2021/01/10 02:01:37;;;;;;;62.47;27.30;;;2.30;99.90;;;2.93;96.33;101522.31;5014128;28;20103;-82
2021/01/10 02:04:32;;;;;;;68.20;29.08;;;2.30;99.90;;;2.96;95.97;101521.75;5014412;28;20378;-82
2021/01/10 02:07:41;;;;;;;67.60;29.55;;;2.30;99.90;;;2.95;96.49;101522.06;5030907;28;20044;-85
2021/01/10 02:10:13;;;;;;;60.95;29.02;;;2.20;99.90;;;2.95;96.28;101505.50;5031553;28;20366;-81
2021/01/10 02:12:52;;;;;;;61.20;27.40;;;2.20;99.90;;;2.88;96.38;101511.34;5030641;28;20037;-81
2021/01/10 02:15:30;;;;;;;67.95;27.42;;;2.20;99.90;;;2.91;96.73;101510.75;5031310;28;20076;-79
2021/01/10 02:17:57;;;;;;;64.85;27.73;;;2.20;99.90;;;2.89;96.33;101501.91;5032296;28;20444;-83
2021/01/10 02:20:41;;;;;;;61.88;27.45;;;2.20;99.90;;;2.85;96.87;101508.31;5015421;28;20040;-82
2021/01/10 02:23:10;;;;;;;78.03;31.00;;;2.20;99.90;;;2.82;96.95;101506.97;5030240;28;20096;-80
2021/01/10 02:25:43;;;;;;;79.22;31.67;;;2.10;99.90;;;2.78;96.74;101505.88;5030233;28;20520;-83
2021/01/10 02:28:13;;;;;;;73.30;31.10;;;2.10;99.90;;;2.75;97.11;101505.63;5030541;28;20092;-81
2021/01/10 02:30:43;;;;;;;79.72;31.15;;;2.10;99.90;;;2.79;96.68;101502.00;5013338;28;20104;-82
2021/01/10 02:33:30;;;;;;;76.80;32.58;;;2.10;99.90;;;2.84;96.81;101506.66;5046065;22;20042;-83
2021/01/10 02:36:00;;;;;;;78.45;33.28;;;2.10;99.90;;;2.85;96.73;101511.06;5013535;28;20033;-85
2021/01/10 02:38:47;;;;;;;89.43;34.38;;;2.10;99.90;;;2.93;96.33;101505.75;5038505;28;20041;-85
2021/01/10 02:41:45;;;;;;;83.70;32.40;;;2.10;99.90;;;2.92;96.62;101512.38;5021034;28;20033;-85
2021/01/10 02:44:36;;;;;;;86.22;32.95;;;2.20;99.90;;;2.91;96.26;101518.22;5039565;28;20060;-85
2021/01/10 02:47:02;;;;;;;80.35;32.80;;;2.20;99.90;;;2.94;96.44;101517.63;5021869;28;20056;-86
2021/01/10 02:49:28;;;;;;;79.63;31.80;;;2.20;99.90;;;2.94;96.23;101510.19;5039594;28;20030;-86
2021/01/10 02:51:54;;;;;;;74.40;33.15;;;2.20;99.90;;;2.94;96.30;101520.41;5041625;28;20025;-86
2021/01/10 02:54:20;;;;;;;86.70;33.35;;;2.20;99.90;;;2.86;96.42;101510.78;5055193;28;20052;-84
2021/01/10 02:57:04;;;;;;;91.32;32.97;;;2.20;99.90;;;2.80;96.66;101511.91;5027927;28;20092;-84
2021/01/10 02:59:38;;;;;;;92.32;34.78;;;2.20;99.90;;;2.82;96.74;101504.19;5038184;28;20029;-82
2021/01/10 03:02:08;;;;;;;87.97;32.75;;;2.10;99.90;;;2.87;96.43;101511.59;5020061;28;20083;-83
2021/01/10 03:04:35;;;;;;;78.68;33.42;;;2.10;99.90;;;2.84;96.83;101503.91;5037135;28;20036;-83
2021/01/10 03:07:05;;;;;;;87.53;34.22;;;2.10;99.90;;;2.77;96.47;101500.63;5038186;28;20113;-83
2021/01/10 03:09:32;;;;;;;89.15;33.63;;;2.10;99.90;;;2.83;97.07;101505.81;5019418;28;20029;-85
2021/01/10 03:12:25;;;;;;;83.97;34.05;;;2.10;99.90;;;2.78;96.66;101502.28;5019412;28;20021;-83
2021/01/10 03:14:58;;;;;;;85.78;31.95;;;2.10;99.90;;;2.79;96.52;101484.63;5019458;28;20026;-84
2021/01/10 03:17:47;;;;;;;79.13;33.35;;;2.00;99.90;;;2.80;96.28;101492.59;5019293;28;20079;-81
2021/01/10 03:20:18;;;;;;;87.25;32.65;;;2.10;99.90;;;2.72;96.66;101486.88;5037851;28;20033;-83
2021/01/10 03:22:46;;;;;;;83.43;31.42;;;2.00;99.90;;;2.76;96.75;101485.22;5038188;28;20056;-84
2021/01/10 03:25:21;;;;;;;84.28;33.08;;;2.00;99.90;;;2.78;96.51;101491.25;5037910;28;20041;-86
2021/01/10 03:27:48;;;;;;;92.43;33.22;;;2.10;99.90;;;2.74;96.88;101488.22;5037478;28;20025;-86
2021/01/10 03:30:19;;;;;;;80.20;32.28;;;2.00;99.90;;;2.79;97.12;101482.69;5038096;28;20033;-85
2021/01/10 03:32:46;;;;;;;75.30;30.17;;;2.10;99.90;;;2.80;97.00;101477.97;5036728;28;20033;-84
2021/01/10 03:35:15;;;;;;;69.43;28.23;;;2.10;99.90;;;2.82;96.71;101484.06;5019583;28;20071;-85
2021/01/10 03:37:41;;;;;;;78.45;29.65;;;2.10;99.90;;;2.78;97.05;101481.03;5018768;28;20033;-84
2021/01/10 03:40:08;;;;;;;61.72;28.65;;;2.00;99.90;;;2.78;96.66;101480.22;5036815;28;20040;-85
2021/01/10 03:42:36;;;;;;;76.45;31.48;;;2.10;99.90;;;2.78;96.91;101481.03;5019780;28;20125;-85
2021/01/10 03:45:05;;;;;;;79.30;30.55;;;2.00;99.90;;;2.77;96.78;101473.03;5019519;28;20026;-84
2021/01/10 03:47:30;;;;;;;76.63;31.45;;;2.00;99.90;;;2.73;97.12;101474.75;5037671;28;20021;-84
2021/01/10 03:49:56;;;;;;;77.13;30.10;;;2.00;99.90;;;2.76;96.92;101474.16;5038172;28;20025;-83
2021/01/10 03:52:22;;;;;;;70.50;29.42;;;2.00;99.90;;;2.74;96.98;101477.19;5019150;28;20025;-85
2021/01/10 03:54:48;;;;;;;76.72;30.83;;;2.00;99.90;;;2.74;96.70;101471.69;5037488;28;20026;-84
2021/01/10 03:57:14;;;;;;;84.00;32.83;;;2.00;99.90;;;2.73;96.94;101481.06;5020618;28;20037;-84
2021/01/10 03:59:40;;;;;;;77.45;31.83;;;2.00;99.90;;;2.69;96.70;101463.47;5038134;28;20381;-84
2021/01/10 04:02:06;;;;;;;80.72;31.63;;;2.00;99.90;;;2.73;96.94;101463.72;5020394;28;20036;-84
2021/01/10 04:04:32;;;;;;;75.32;30.63;;;2.00;99.90;;;2.73;97.13;101470.03;5020699;28;20029;-83
2021/01/10 04:06:58;;;;;;;83.10;31.38;;;2.00;99.90;;;2.71;96.92;101463.16;5038368;28;20033;-85
2021/01/10 04:09:23;;;;;;;73.60;29.63;;;2.00;99.90;;;2.64;97.10;101466.22;5020298;28;20040;-85
2021/01/10 04:11:49;;;;;;;92.00;33.60;;;2.00;99.90;;;2.64;97.27;101472.56;5020011;28;20025;-82
2021/01/10 04:14:15;;;;;;;81.35;33.42;;;1.90;99.90;;;2.63;97.13;101465.41;5019938;28;20026;-86
2021/01/10 04:16:41;;;;;;;84.35;33.10;;;1.90;99.90;;;2.62;96.88;101472.03;5021463;28;20029;-87
2021/01/10 04:19:10;;;;;;;89.88;32.67;;;1.90;99.90;;;2.66;97.22;101470.34;5038779;28;20056;-85
2021/01/10 04:21:37;;;;;;;89.68;36.25;;;1.90;99.90;;;2.62;97.18;101458.25;5039441;28;20037;-83
2021/01/10 04:24:05;;;;;;;101.53;35.00;;;1.90;99.90;;;2.65;97.07;101468.72;5022277;28;20472;-84
2021/01/10 04:26:49;;;;;;;87.80;31.05;;;1.90;99.90;;;2.66;96.67;101472.31;5023613;28;20037;-85
2021/01/10 04:29:21;;;;;;;93.35;32.22;;;1.90;99.90;;;2.63;96.95;101473.66;5029430;28;20030;-85
2021/01/10 04:31:50;;;;;;;85.38;32.65;;;1.90;99.90;;;2.62;97.00;101472.03;5029829;28;20033;-86
2021/01/10 04:34:18;;;;;;;92.35;32.08;;;1.90;99.90;;;2.65;97.07;101479.75;5029778;28;20469;-82
2021/01/10 04:36:45;;;;;;;84.30;31.95;;;1.90;99.90;;;2.64;96.73;101477.25;5028324;28;20108;-85
2021/01/10 04:39:12;;;;;;;84.18;31.52;;;1.90;99.90;;;2.63;96.94;101476.44;5028491;28;20055;-84
2021/01/10 04:41:44;;;;;;;80.38;30.98;;;1.90;99.90;;;2.60;97.13;101470.69;5036892;28;20029;-83
2021/01/10 04:44:13;;;;;;;93.00;35.10;;;1.90;99.90;;;2.53;96.89;101468.25;5040930;28;20289;-84
2021/01/10 04:46:43;;;;;;;96.75;34.15;;;1.90;99.90;;;2.51;97.37;101464.09;5040401;28;20469;-82
2021/01/10 04:49:11;;;;;;;90.22;34.03;;;1.80;99.90;;;2.55;97.25;101462.44;5039742;28;20093;-83
2021/01/10 04:51:45;;;;;;;82.50;31.75;;;1.80;99.90;;;2.60;96.96;101462.41;5055447;28;20128;-83
2021/01/10 04:54:16;;;;;;;77.68;32.00;;;1.90;99.90;;;2.61;96.55;101466.81;5038748;28;20087;-81
2021/01/10 04:56:44;;;;;;;84.10;30.83;;;1.90;99.90;;;2.62;96.93;101463.78;5038217;28;20045;-83
2021/01/10 04:59:14;;;;;;;80.18;33.50;;;1.90;99.90;;;2.64;96.57;101466.22;5054740;28;20034;-83
2021/01/10 05:02:02;;;;;;;86.95;31.05;;;1.90;99.90;;;2.62;97.00;101466.53;5053109;28;20030;-82
2021/01/10 05:04:30;;;;;;;85.15;31.55;;;1.90;99.90;;;2.62;96.98;101468.47;5036900;28;20037;-85
2021/01/10 05:07:02;;;;;;;86.60;31.17;;;1.90;99.90;;;2.58;96.56;101467.38;5053849;28;20057;-85
2021/01/10 05:09:32;;;;;;;84.68;31.35;;;1.90;99.90;;;2.55;96.72;101470.69;5034865;28;20056;-85
2021/01/10 05:12:02;;;;;;;88.22;30.60;;;1.90;99.90;;;2.56;96.96;101473.19;5051566;28;20025;-85
2021/01/10 05:14:29;;;;;;;94.32;32.55;;;1.90;99.90;;;2.54;96.84;101472.63;5053685;28;20047;-84
2021/01/10 05:17:02;;;;;;;83.47;31.10;;;1.80;99.90;;;2.59;96.74;101474.53;5055228;28;20052;-84
2021/01/10 05:19:38;;;;;;;94.60;31.52;;;1.90;99.90;;;2.60;96.51;101473.44;5038218;28;20041;-82
2021/01/10 05:22:09;;;;;;;86.20;32.30;;;1.90;99.90;;;2.60;96.64;101471.50;5037762;28;20547;-84
2021/01/10 05:24:36;;;;;;;73.82;30.05;;;1.90;99.90;;;2.63;96.72;101472.88;5037178;28;20101;-85
2021/01/10 05:27:04;;;;;;;82.63;30.00;;;1.90;99.90;;;2.63;96.51;101481.94;5037052;28;20036;-83
2021/01/10 05:29:31;;;;;;;67.32;27.58;;;1.90;99.90;;;2.61;96.56;101478.66;5053706;28;20033;-84
2021/01/10 05:32:01;;;;;;;77.57;27.58;;;1.90;99.90;;;2.61;96.75;101475.91;5036410;28;20029;-86
2021/01/10 05:34:28;;;;;;;77.35;29.83;;;1.90;99.90;;;2.59;96.55;101472.63;5051183;28;20025;-86
2021/01/10 05:36:58;;;;;;;79.78;29.10;;;1.90;99.90;;;2.62;96.96;101479.50;5055051;28;20025;-84
2021/01/10 05:39:29;;;;;;;83.57;29.77;;;1.90;99.90;;;2.62;96.79;101474.81;5055065;28;20051;-85
2021/01/10 05:42:03;;;;;;;76.05;28.05;;;1.90;99.90;;;2.67;96.39;101477.53;5053896;28;20151;-84
2021/01/10 05:44:49;;;;;;;74.35;28.10;;;1.90;99.90;;;2.67;96.50;101472.00;5053726;28;20128;-84
2021/01/10 05:47:19;;;;;;;74.85;27.15;;;1.90;99.90;;;2.69;96.62;101479.19;5055070;28;20029;-84
2021/01/10 05:49:55;;;;;;;74.85;29.58;;;1.90;99.90;;;2.67;96.56;101469.25;5053955;28;20121;-84
2021/01/10 05:52:23;;;;;;;79.35;26.63;;;1.90;99.90;;;2.50;96.44;101470.75;5054022;28;20033;-86
2021/01/10 05:54:54;;;;;;;71.15;28.48;;;2.00;99.90;;;2.51;97.00;101472.38;5053531;28;20031;-81
2021/01/10 05:57:29;;;;;;;73.43;28.45;;;1.90;99.90;;;2.58;96.50;101468.19;5056462;28;20029;-82
2021/01/10 05:59:57;;;;;;;67.35;26.73;;;1.80;99.90;;;2.60;96.87;101474.25;5053719;28;20033;-84
2021/01/10 06:02:37;;;;;;;85.30;28.70;;;1.90;99.90;;;2.56;96.85;101480.63;5046404;28;20051;-84
2021/01/10 06:05:17;;;;;;;82.95;29.00;;;1.90;99.90;;;2.61;96.83;101470.38;5049657;28;20029;-84
2021/01/10 06:07:48;;;;;;;59.50;25.58;;;1.90;99.90;;;2.63;96.36;101478.41;5054068;28;20119;-83
2021/01/10 06:10:39;;;;;;;64.97;26.75;;;1.90;99.90;;;2.59;96.62;101478.13;5050228;28;20035;-82
2021/01/10 06:13:08;;;;;;;70.10;26.25;;;1.90;99.90;;;2.59;96.51;101475.38;5049440;28;20046;-85
2021/01/10 06:15:36;;;;;;;66.72;26.27;;;1.90;99.90;;;2.58;96.39;101479.22;5053638;28;20029;-83
2021/01/10 06:18:06;;;;;;;72.10;28.48;;;1.90;99.90;;;2.58;96.54;101483.91;5052184;28;20032;-85
2021/01/10 06:20:35;;;;;;;68.30;24.92;;;1.90;99.90;;;2.56;96.64;101477.88;5051451;28;20167;-85
2021/01/10 06:23:05;;;;;;;70.50;28.05;;;1.90;99.90;;;2.56;96.75;101481.47;5048403;28;20039;-85
2021/01/10 06:25:40;;;;;;;67.80;27.42;;;1.90;99.90;;;2.52;96.75;101474.03;5067628;28;20028;-83
2021/01/10 06:28:27;;;;;;;78.05;29.35;;;1.90;99.90;;;2.51;96.88;101478.72;5054360;28;20040;-84
2021/01/10 06:31:07;;;;;;;75.05;28.45;;;1.80;99.90;;;2.44;97.31;101477.41;5053820;28;20048;-83
2021/01/10 06:33:47;;;;;;;69.68;28.55;;;1.90;99.90;;;2.46;97.06;101477.94;5050180;28;20044;-84
2021/01/10 06:36:22;;;;;;;88.72;31.67;;;1.80;99.90;;;2.46;96.92;101477.94;5050845;28;20039;-82
2021/01/10 06:39:09;;;;;;;60.85;22.35;;;1.90;99.90;;;2.53;96.92;101481.22;5037963;28;20029;-84
2021/01/10 06:41:35;;;;;;;80.80;29.17;;;1.90;99.90;;;2.48;97.01;101479.28;5051753;28;20469;-84
2021/01/10 06:44:08;;;;;;;78.80;27.88;;;1.90;99.90;;;2.44;97.07;101466.38;5067266;28;20028;-83
2021/01/10 06:46:35;;;;;;;72.25;27.98;;;1.90;99.90;;;2.53;96.71;101479.28;5068076;28;20104;-83
2021/01/10 06:49:07;;;;;;;69.38;26.55;;;1.90;99.90;;;2.59;95.97;101483.66;5050296;28;20062;-83
2021/01/10 06:51:38;;;;;;;69.80;26.33;;;1.90;99.90;;;2.60;96.01;101481.72;5049213;28;20021;-83
2021/01/10 06:54:06;;;;;;;63.70;26.55;;;1.90;99.90;;;2.54;96.33;101486.41;5048838;28;20078;-83
2021/01/10 06:56:36;;;;;;;58.15;26.52;;;1.80;99.90;;;2.55;96.41;101490.84;5048227;28;20158;-83
2021/01/10 06:59:16;;;;;;;72.03;26.25;;;1.80;99.90;;;2.55;96.36;101493.59;5065903;28;20098;-84
2021/01/10 07:01:52;;;;;;;69.80;27.88;;;1.90;99.90;;;2.54;96.02;101491.94;5047148;28;20099;-85
2021/01/10 07:04:24;;;;;;;66.25;25.30;;;1.80;99.90;;;2.58;95.95;101487.50;5063606;28;20530;-83
2021/01/10 07:06:55;;;;;;;63.65;26.38;;;1.80;99.90;;;2.58;96.20;101489.44;5046764;28;20115;-84
2021/01/10 07:09:25;;;;;;;71.50;27.33;;;1.80;99.90;;;2.62;96.03;101496.88;5046098;28;20036;-85
2021/01/10 07:11:52;;;;;;;66.53;25.83;;;1.80;99.90;;;2.59;96.02;101496.63;5045620;28;20064;-83
2021/01/10 07:14:24;;;;;;;68.40;26.98;;;1.80;99.90;;;2.59;95.73;101499.38;5046703;28;20060;-83
2021/01/10 07:17:10;;;;;;;100.72;39.72;;;1.80;99.90;;;2.54;95.91;101497.44;5046045;28;20070;-85
2021/01/10 07:19:49;;;;;;;148.85;60.22;;;1.90;99.90;;;2.53;96.09;101500.50;5062597;28;20146;-82
2021/01/10 07:22:32;;;;;;;88.43;35.00;;;1.80;99.90;;;2.51;96.43;101491.69;5051592;28;20115;-85
2021/01/10 07:25:34;;;;;;;67.35;27.27;;;1.80;99.90;;;2.39;96.54;101496.72;5072527;28;20431;-83
2021/01/10 07:28:37;;;;;;;72.82;29.63;;;1.80;99.90;;;2.43;96.43;101509.66;5041890;28;20033;-84
2021/01/10 07:31:14;;;;;;;86.10;32.47;;;1.80;99.90;;;2.50;96.30;101515.69;5035735;28;20025;-80
2021/01/10 07:33:41;;;;;;;71.40;29.50;;;1.80;99.90;;;2.27;96.79;101505.31;5036011;28;20025;-83
2021/01/10 07:36:09;;;;;;;78.38;28.73;;;1.70;99.90;;;2.36;96.81;101502.78;5035302;28;20051;-85
2021/01/10 07:38:39;;;;;;;83.90;29.13;;;1.70;99.90;;;2.39;96.51;101502.22;5035382;28;20117;-81
2021/01/10 07:41:30;;;;;;;70.05;27.83;;;1.70;99.90;;;2.44;96.43;101497.50;5052396;28;20037;-83
2021/01/10 07:43:58;;;;;;;82.85;29.90;;;1.80;99.90;;;2.43;96.51;101498.63;5033281;28;20026;-83
2021/01/10 07:47:00;;;;;;;69.35;28.05;;;1.80;99.90;;;2.46;96.31;101506.34;5034766;28;20105;-82
2021/01/10 07:49:50;;;;;;;63.65;27.45;;;1.80;99.90;;;2.43;96.12;101504.16;5050667;28;20057;-82
2021/01/10 07:52:37;;;;;;;70.20;25.48;;;1.80;99.90;;;2.43;96.42;101509.66;5049222;28;20026;-82
2021/01/10 07:55:07;;;;;;;70.80;27.67;;;1.70;99.90;;;2.50;96.54;101510.19;5030270;28;20120;-84
2021/01/10 07:57:34;;;;;;;75.47;27.75;;;1.80;99.90;;;2.51;96.26;101514.56;5032923;28;20025;-83
2021/01/10 08:00:27;;;;;;;71.63;26.60;;;1.80;99.90;;;2.51;95.85;101506.28;5050679;28;20045;-83
2021/01/10 08:03:08;;;;;;;63.55;26.38;;;1.80;99.90;;;2.49;96.01;101519.56;5049292;28;20044;-85
2021/01/10 08:05:54;;;;;;;69.32;29.13;;;1.80;99.90;;;2.59;96.07;101526.94;5049782;28;20039;-84
2021/01/10 08:08:46;;;;;;;54.13;18.75;;;1.80;99.90;;;2.55;96.23;101523.09;5050753;28;20073;-81
2021/01/10 08:11:35;;;;;;;58.28;25.50;;;1.80;99.90;;;2.44;95.84;101532.53;5031782;28;20029;-84
2021/01/10 08:14:14;;;;;;;60.85;24.55;;;1.80;99.90;;;2.46;95.85;101522.88;5050199;28;20060;-85
2021/01/10 08:16:47;;;;;;;55.13;24.17;;;1.90;99.90;;;2.53;95.52;101522.56;5032756;28;20029;-82
2021/01/10 08:19:16;;;;;;;61.33;26.33;;;1.80;99.90;;;2.51;95.59;101531.13;5048311;28;20037;-84
2021/01/10 08:21:45;;;;;;;57.25;24.65;;;1.90;99.90;;;2.55;95.47;101523.94;5035993;28;20024;-83
2021/01/10 08:24:23;;;;;;;63.65;26.10;;;1.90;99.90;;;2.54;94.81;101529.72;5030945;28;20030;-83
2021/01/10 08:26:53;;;;;;;60.25;25.50;;;1.90;99.90;;;2.60;95.20;101536.88;5047212;28;20034;-86
2021/01/10 08:29:27;;;;;;;59.38;22.85;;;1.90;99.90;;;2.65;94.87;101534.91;5028881;28;20025;-84
2021/01/10 08:31:57;;;;;;;60.28;25.52;;;1.90;99.90;;;2.57;94.90;101526.38;5030099;28;20034;-84
2021/01/10 08:34:44;;;;;;;58.33;23.95;;;2.00;99.90;;;2.54;95.47;101524.19;5030537;28;20163;-84
2021/01/10 08:37:34;;;;;;;63.55;23.77;;;1.90;99.90;;;2.55;95.40;101534.97;5031110;28;20089;-84
2021/01/10 08:40:09;;;;;;;60.28;22.70;;;2.00;99.90;;;2.71;95.08;101526.59;5051584;28;20037;-85
2021/01/10 08:42:41;;;;;;;52.47;24.60;;;2.00;99.90;;;2.79;94.98;101540.63;5051158;28;20079;-83
2021/01/10 08:45:21;;;;;;;50.78;24.67;;;2.10;99.90;;;2.71;94.89;101530.19;5035145;28;20082;-84
2021/01/10 08:47:49;;;;;;;55.50;23.92;;;2.10;99.90;;;2.84;95.03;101537.00;5052438;28;20026;-82
2021/01/10 08:50:22;;;;;;;55.95;24.05;;;2.10;99.90;;;2.91;95.09;101535.59;5051314;28;20033;-83
2021/01/10 08:53:00;;;;;;;60.22;26.55;;;2.20;99.90;;;2.95;94.58;101541.38;5052218;28;20025;-84
2021/01/10 08:55:40;;;;;;;52.97;24.15;;;2.20;99.90;;;3.03;94.92;101544.34;5035119;28;20029;-83
2021/01/10 08:58:10;;;;;;;57.08;23.83;;;2.20;99.90;;;3.09;94.93;101542.34;5049641;28;20044;-82
2021/01/10 09:00:42;;;;;;;55.70;23.63;;;2.30;99.90;;;2.98;94.23;101543.56;5051522;28;20029;-83
2021/01/10 09:03:17;;;;;;;53.70;22.42;;;2.30;99.90;;;2.97;94.24;101552.94;5052925;28;20075;-85
2021/01/10 09:05:52;;;;;;;59.65;24.27;;;2.30;99.90;;;3.07;93.79;101545.41;5034459;28;20059;-84
2021/01/10 09:08:44;;;;;;;55.40;23.07;;;2.40;99.90;;;3.06;93.21;101545.69;5051571;28;20038;-83
2021/01/10 09:11:21;;;;;;;53.88;21.95;;;2.40;99.90;;;3.17;93.81;101553.63;5053171;28;20060;-85
2021/01/10 09:13:52;;;;;;;49.58;22.35;;;2.40;99.90;;;3.18;92.96;101540.63;5052677;28;20028;-84
2021/01/10 09:16:22;;;;;;;47.03;22.98;;;2.40;99.90;;;3.21;92.99;101542.84;5031529;28;20060;-84
2021/01/10 09:18:52;;;;;;;50.85;22.83;;;2.50;99.90;;;3.29;93.27;101553.25;5046553;28;20033;-83
2021/01/10 09:21:25;;;;;;;51.92;21.90;;;2.50;99.90;;;3.16;92.45;101554.75;5053648;28;20041;-83
2021/01/10 09:23:59;;;;;;;47.75;19.80;;;2.50;99.90;;;3.26;92.67;101553.84;5052160;28;20052;-84
2021/01/10 09:26:34;;;;;;;48.85;21.10;;;2.60;99.90;;;3.36;92.29;101551.00;5033098;28;20033;-83
2021/01/10 09:29:03;;;;;;;46.42;21.60;;;2.60;99.90;;;3.47;91.08;101558.06;5049701;28;20033;-83
2021/01/10 09:31:42;;;;;;;45.28;20.60;;;2.70;99.90;;;3.40;91.68;101552.09;5032874;28;20029;-82
2021/01/10 09:34:09;;;;;;;47.47;19.77;;;2.70;99.90;;;3.60;91.20;101554.66;5032363;28;20053;-81
2021/01/10 09:36:36;;;;;;;40.50;20.27;;;2.80;99.90;;;3.69;90.48;101544.63;5047457;28;20135;-84
2021/01/10 09:39:07;;;;;;;43.67;19.92;;;2.80;99.90;;;3.76;89.81;101549.81;5029439;28;20049;-81
2021/01/10 09:41:58;;;;;;;40.50;18.08;;;2.90;99.90;;;3.68;89.98;101543.00;5050608;28;20037;-82
2021/01/10 09:44:24;;;;;;;38.90;18.13;;;3.00;99.90;;;3.56;89.57;101544.50;5051918;28;20041;-82
2021/01/10 09:46:54;;;;;;;40.88;17.08;;;3.00;99.90;;;3.61;90.47;101544.44;5035405;28;20033;-82
2021/01/10 09:49:30;;;;;;;43.63;18.58;;;3.00;99.90;;;3.78;89.82;101546.75;5052850;28;20059;-82
2021/01/10 09:52:10;;;;;;;37.40;18.20;;;3.00;99.90;;;3.92;89.50;101562.34;5049050;28;20040;-84
2021/01/10 09:54:37;;;;;;;39.72;17.45;;;3.10;99.90;;;4.03;89.05;101555.63;5048725;28;20048;-84
2021/01/10 09:57:19;;;;;;;43.03;17.45;;;3.20;99.90;;;4.11;88.71;101560.50;5037962;28;20067;-83
2021/01/10 10:00:03;;;;;;;35.67;16.52;;;3.20;99.90;;;4.22;88.66;101555.69;5039150;28;20039;-85
2021/01/10 10:02:47;;;;;;;41.35;17.13;;;3.30;99.90;;;4.09;87.21;101556.38;5067520;28;20063;-83
2021/01/10 10:05:27;;;;;;;37.40;16.95;;;3.30;99.90;;;4.22;87.85;101559.28;5052497;28;20052;-83
2021/01/10 10:08:12;;;;;;;36.35;16.65;;;3.40;99.90;;;4.27;87.23;101552.84;5038057;28;20037;-84
2021/01/10 10:10:42;;;;;;;34.40;16.15;;;3.40;99.90;;;4.31;86.81;101555.84;5053033;28;20085;-81
2021/01/10 10:13:12;;;;;;;35.42;16.00;;;3.50;99.90;;;4.31;86.58;101556.69;5038467;28;20075;-81
2021/01/10 10:15:58;;;;;;;39.15;16.50;;;3.50;99.90;;;4.30;86.33;101560.59;5037882;28;20036;-84
2021/01/10 10:18:49;;;;;;;36.67;16.27;;;3.50;99.90;;;4.32;84.99;101552.81;5037270;28;20037;-82
2021/01/10 10:21:26;;;;;;;36.70;16.30;;;3.50;99.90;;;4.30;85.80;101552.28;5032616;28;20060;-84
2021/01/10 10:23:55;;;;;;;34.78;16.17;;;3.50;99.90;;;4.27;85.65;101550.09;5045862;28;20061;-83
2021/01/10 10:26:24;;;;;;;39.28;17.48;;;3.40;99.90;;;4.29;86.11;101547.88;5028394;28;20029;-85
2021/01/10 10:28:57;;;;;;;32.20;14.73;;;3.50;99.90;;;4.33;86.28;101548.94;5044909;28;20040;-83
2021/01/10 10:31:24;;;;;;;37.58;14.30;;;3.40;99.90;;;4.29;85.52;101547.88;5027857;28;20028;-82
2021/01/10 10:33:51;;;;;;;41.42;16.50;;;3.50;99.90;;;4.23;86.48;101540.75;5036809;28;20026;-83
2021/01/10 10:36:20;;;;;;;34.85;14.98;;;3.50;99.90;;;4.24;86.11;101526.63;5020043;28;20040;-82